Time;durP1;ratioP1;P1;durP2;ratioP2;P2;SDS_P1;SDS_P2;PMS_P1;PMS_P2;Temp;Humidity;BMP_temperature;BMP_pressure;BME280_temperature;BME280_humidity;BME280_pressure;Samples;Min_cycle;Max_cycle;Signal;HPM_P1;HPM_P2
2022/10/06 00:01:15;;;;;;;5.38;1.15;;;;;;;12.65;100.00;101698.47;4853233;29;20445;-76
2022/10/06 00:03:44;;;;;;;3.00;1.20;;;;;;;12.64;100.00;101700.19;4906679;29;20047;-76
2022/10/06 00:06:15;;;;;;;6.82;1.85;;;;;;;12.65;100.00;101703.75;4905629;29;20504;-76
2022/10/06 00:08:44;;;;;;;3.88;1.13;;;;;;;12.63;100.00;101706.38;4924686;29;20048;-75
2022/10/06 00:11:15;;;;;;;12.23;1.73;;;;;;;12.63;100.00;101713.44;4910052;29;20055;-75
2022/10/06 00:13:43;;;;;;;7.85;1.35;;;;;;;12.62;100.00;101716.94;4878490;29;20047;-76
2022/10/06 00:16:21;;;;;;;5.07;1.55;;;;;;;12.63;100.00;101724.00;4927470;29;20387;-75
2022/10/06 00:18:49;;;;;;;8.55;1.55;;;;;;;12.62;100.00;101727.50;4889930;29;20090;-76
2022/10/06 00:21:17;;;;;;;9.35;1.77;;;;;;;12.61;100.00;101731.03;4893057;29;20386;-76
2022/10/06 00:23:46;;;;;;;3.28;1.50;;;;;;;12.58;100.00;101741.56;4869377;29;20414;-76
2022/10/06 00:26:17;;;;;;;3.58;1.17;;;;;;;12.55;100.00;101760.94;4893950;29;20040;-75
2022/10/06 00:28:46;;;;;;;7.15;1.52;;;;;;;12.54;100.00;101763.56;4906285;29;20043;-75
2022/10/06 00:31:18;;;;;;;7.82;1.50;;;;;;;12.52;100.00;101770.59;4881760;29;20352;-76
2022/10/06 00:33:48;;;;;;;4.78;1.17;;;;;;;12.52;100.00;101773.25;4853853;29;20279;-76
2022/10/06 00:36:17;;;;;;;3.80;1.50;;;;;;;12.48;100.00;101773.22;4876183;29;20489;-78
2022/10/06 00:38:46;;;;;;;8.57;1.38;;;;;;;12.47;100.00;101778.47;4899418;29;20521;-76
2022/10/06 00:41:16;;;;;;;11.68;1.65;;;;;;;12.45;100.00;101796.94;4907543;29;20043;-76
2022/10/06 00:43:48;;;;;;;;;;;;;;;12.44;100.00;101792.56;4888945;29;20063;-76
2022/10/06 00:46:34;;;;;;;6.13;1.58;;;;;;;12.43;100.00;101796.06;4915525;29;19934;-76
2022/10/06 00:49:03;;;;;;;8.02;1.75;;;;;;;12.43;100.00;101800.47;4879218;29;20497;-76
2022/10/06 00:51:35;;;;;;;4.57;1.88;;;;;;;12.43;100.00;101801.34;4923980;29;20399;-78
2022/10/06 00:54:03;;;;;;;9.32;2.10;;;;;;;12.42;100.00;101804.88;4924475;29;20055;-76
2022/10/06 00:56:32;;;;;;;8.50;1.73;;;;;;;12.42;100.00;101812.81;4924915;29;20517;-76
2022/10/06 00:59:00;;;;;;;11.43;1.67;;;;;;;12.40;100.00;101811.00;4880341;29;20286;-76
2022/10/06 01:01:30;;;;;;;7.53;1.90;;;;;;;12.37;100.00;101810.97;4896449;29;20047;-75
2022/10/06 01:04:05;;;;;;;8.38;2.13;;;;;;;12.35;100.00;101818.88;4899946;29;20058;-75
2022/10/06 01:06:49;;;;;;;12.10;1.75;;;;;;;12.31;100.00;101826.78;4891126;29;20062;-76
2022/10/06 01:09:21;;;;;;;8.63;1.75;;;;;;;12.28;100.00;101819.69;4928389;29;20048;-75
2022/10/06 01:11:54;;;;;;;10.63;1.85;;;;;;;12.25;100.00;101832.88;4906516;29;20047;-75
2022/10/06 01:14:24;;;;;;;6.38;1.48;;;;;;;12.22;100.00;101843.41;4894792;29;20036;-75
2022/10/06 01:17:12;;;;;;;8.70;2.22;;;;;;;12.20;100.00;101839.84;4899428;29;20428;-76
2022/10/06 01:19:58;;;;;;;10.98;2.10;;;;;;;12.18;100.00;101846.88;4893126;29;20330;-77
2022/10/06 01:22:34;;;;;;;11.05;1.95;;;;;;;12.15;100.00;101852.97;4892828;29;20051;-75
2022/10/06 01:25:05;;;;;;;11.30;1.83;;;;;;;12.14;100.00;101863.56;4912015;29;20048;-75
2022/10/06 01:27:35;;;;;;;9.77;1.77;;;;;;;12.12;100.00;101862.63;4899819;29;20059;-77
2022/10/06 01:30:15;;;;;;;6.95;1.90;;;;;;;12.11;100.00;101852.94;4911375;29;20047;-75
2022/10/06 01:32:44;;;;;;;11.50;2.28;;;;;;;12.10;100.00;101865.28;4894088;29;20151;-75
2022/10/06 01:35:12;;;;;;;14.70;1.73;;;;;;;12.09;100.00;101880.22;4864904;29;20417;-76
2022/10/06 01:37:41;;;;;;;10.15;1.88;;;;;;;12.09;100.00;101877.56;4921429;29;20152;-76
2022/10/06 01:40:09;;;;;;;14.57;2.63;;;;;;;12.07;100.00;101875.78;4909455;29;20063;-75
2022/10/06 01:42:38;;;;;;;11.52;2.97;;;;;;;12.06;100.00;101887.22;4899549;29;20255;-76
2022/10/06 01:45:07;;;;;;;7.90;1.98;;;;;;;12.03;100.00;101876.63;4899654;29;20051;-76
2022/10/06 01:47:35;;;;;;;7.90;2.05;;;;;;;11.98;100.00;101884.47;4910717;29;20580;-76
2022/10/06 01:50:05;;;;;;;10.93;2.10;;;;;;;11.95;100.00;101889.72;4898744;29;20051;-76
2022/10/06 01:52:34;;;;;;;7.38;1.77;;;;;;;11.92;100.00;101902.88;4889546;29;20633;-77
2022/10/06 01:55:04;;;;;;;10.75;1.75;;;;;;;11.90;100.00;101909.88;4909963;29;20379;-76
2022/10/06 01:57:38;;;;;;;7.13;2.25;;;;;;;11.88;100.00;101908.94;4883926;29;20051;-77
2022/10/06 02:00:08;;;;;;;11.02;2.08;;;;;;;11.85;100.00;101906.25;4910216;29;20051;-76
2022/10/06 02:02:40;;;;;;;9.95;2.63;;;;;;;11.84;100.00;101920.34;4894377;29;20040;-77
2022/10/06 02:05:09;;;;;;;11.18;2.15;;;;;;;11.85;100.00;101932.66;4909370;29;20047;-76
2022/10/06 02:07:41;;;;;;;9.05;2.00;;;;;;;11.85;100.00;101919.47;4861779;29;20031;-76
2022/10/06 02:10:12;;;;;;;12.98;2.30;;;;;;;11.87;100.00;101925.66;4894515;29;20039;-76
2022/10/06 02:12:42;;;;;;;9.52;2.53;;;;;;;11.86;100.00;101932.69;4884441;29;20158;-76
2022/10/06 02:15:10;;;;;;;11.70;3.30;;;;;;;11.88;100.00;101930.06;4893824;29;20067;-76
2022/10/06 02:17:39;;;;;;;19.88;2.55;;;;;;;11.89;100.00;101943.34;4878031;29;20452;-76
2022/10/06 02:20:07;;;;;;;10.82;2.53;;;;;;;11.89;100.00;101934.50;4894299;29;20062;-76
2022/10/06 02:22:38;;;;;;;10.00;1.85;;;;;;;11.87;100.00;101949.41;4891808;29;20702;-76
2022/10/06 02:25:07;;;;;;;13.07;2.13;;;;;;;11.84;100.00;101954.66;4893911;29;20043;-76
2022/10/06 02:27:35;;;;;;;17.50;3.10;;;;;;;11.83;100.00;101956.44;4886589;29;20270;-76
2022/10/06 02:30:07;;;;;;;14.40;2.88;;;;;;;11.80;100.00;101963.41;4905380;29;20047;-76
2022/10/06 02:32:38;;;;;;;9.70;2.30;;;;;;;11.79;100.00;101969.53;4877165;29;20047;-76
2022/10/06 02:35:11;;;;;;;10.60;2.92;;;;;;;11.76;100.00;101974.78;4890566;29;20047;-76
2022/10/06 02:37:41;;;;;;;11.98;2.50;;;;;;;11.74;100.00;101984.41;4874612;29;20515;-76
2022/10/06 02:40:12;;;;;;;12.43;2.13;;;;;;;11.70;100.00;101975.56;4893234;29;20055;-76
2022/10/06 02:42:40;;;;;;;14.60;2.70;;;;;;;11.67;100.00;101979.03;4882887;29;20183;-76
2022/10/06 02:45:10;;;;;;;13.50;2.50;;;;;;;11.64;100.00;101978.97;4908675;29;20046;-76
2022/10/06 02:47:39;;;;;;;9.15;2.47;;;;;;;11.61;100.00;101989.50;4904033;29;20194;-76
2022/10/06 02:50:08;;;;;;;11.30;2.53;;;;;;;11.59;100.00;102000.91;4882557;29;20520;-76
2022/10/06 02:52:39;;;;;;;13.05;2.13;;;;;;;11.57;100.00;101999.97;4860866;29;20334;-76
2022/10/06 02:55:08;;;;;;;11.43;1.88;;;;;;;11.55;100.00;102007.88;4908743;29;20055;-76
2022/10/06 02:57:38;;;;;;;11.10;1.67;;;;;;;11.52;100.00;102018.38;4904934;29;20054;-76
2022/10/06 03:00:09;;;;;;;12.75;2.42;;;;;;;11.50;100.00;102020.09;4881950;29;20263;-76
2022/10/06 03:02:37;;;;;;;12.75;2.65;;;;;;;11.47;100.00;102026.22;4924125;29;20393;-76
2022/10/06 03:05:06;;;;;;;11.15;1.55;;;;;;;11.46;100.00;102026.19;4909463;29;20334;-76
2022/10/06 03:07:34;;;;;;;8.73;2.22;;;;;;;11.45;100.00;102043.75;4909391;29;20047;-76
2022/10/06 03:10:03;;;;;;;11.30;1.80;;;;;;;11.43;100.00;102040.22;4845034;29;20437;-76
2022/10/06 03:12:33;;;;;;;11.23;1.60;;;;;;;11.44;100.00;102056.97;4907996;29;20389;-76
2022/10/06 03:15:02;;;;;;;12.57;2.08;;;;;;;11.45;100.00;102061.34;4883652;29;20579;-76
2022/10/06 03:17:31;;;;;;;12.05;2.45;;;;;;;11.43;100.00;102057.81;4906042;29;20047;-76
2022/10/06 03:19:59;;;;;;;8.95;2.15;;;;;;;11.43;100.00;102061.31;4895927;29;20040;-76
2022/10/06 03:22:28;;;;;;;8.98;1.98;;;;;;;11.40;100.00;102074.47;4909641;29;20047;-76
2022/10/06 03:24:57;;;;;;;10.10;2.22;;;;;;;11.39;100.00;102072.69;4874027;29;20043;-76
2022/10/06 03:27:26;;;;;;;10.75;2.28;;;;;;;11.38;100.00;102081.47;4909481;29;20040;-76
2022/10/06 03:30:00;;;;;;;13.80;2.10;;;;;;;11.35;100.00;102084.06;4889250;29;20040;-76
2022/10/06 03:32:31;;;;;;;9.57;2.30;;;;;;;11.35;100.00;102088.44;4896303;29;20051;-76
2022/10/06 03:35:00;;;;;;;11.30;2.50;;;;;;;11.34;100.00;102095.44;4894359;29;20043;-76
2022/10/06 03:37:28;;;;;;;11.18;2.30;;;;;;;11.32;100.00;102095.44;4905160;29;20405;-76
2022/10/06 03:39:57;;;;;;;12.20;2.10;;;;;;;11.30;100.00;102099.81;4887594;29;20060;-76
2022/10/06 03:42:25;;;;;;;10.10;2.35;;;;;;;11.29;100.00;102108.56;4888976;29;20051;-76
2022/10/06 03:44:54;;;;;;;16.67;2.75;;;;;;;11.27;100.00;102107.66;4905469;29;20528;-76
2022/10/06 03:47:23;;;;;;;12.88;5.05;;;;;;;11.24;100.00;102110.22;4870838;29;20469;-76
2022/10/06 03:49:51;;;;;;;10.00;2.72;;;;;;;11.22;100.00;102103.13;4890774;29;20293;-76
2022/10/06 03:52:19;;;;;;;9.88;2.40;;;;;;;11.20;100.00;102107.50;4889849;29;20144;-75
2022/10/06 03:54:53;;;;;;;7.75;1.80;;;;;;;11.17;100.00;102105.69;4891826;29;20036;-77
2022/10/06 03:57:22;;;;;;;10.88;2.70;;;;;;;11.16;100.00;102116.22;4881989;29;20032;-77
2022/10/06 03:59:51;;;;;;;8.32;1.85;;;;;;;11.14;100.00;102112.66;4891332;29;20044;-76
2022/10/06 04:02:19;;;;;;;12.27;2.30;;;;;;;11.10;100.00;102120.47;4873377;29;20282;-75
2022/10/06 04:04:48;;;;;;;15.90;2.20;;;;;;;11.09;100.00;102137.16;4906602;29;20056;-75
2022/10/06 04:07:16;;;;;;;8.00;2.28;;;;;;;11.07;100.00;102138.00;4873703;29;20673;-75
2022/10/06 04:09:46;;;;;;;6.20;1.73;;;;;;;11.06;100.00;102152.94;4877530;29;20536;-75
2022/10/06 04:12:17;;;;;;;14.23;2.83;;;;;;;11.05;100.00;102150.25;4874455;29;20258;-75
2022/10/06 04:14:45;;;;;;;11.05;2.20;;;;;;;11.05;100.00;102155.53;4905634;29;20056;-75
2022/10/06 04:17:14;;;;;;;10.85;2.40;;;;;;;11.04;100.00;102157.28;4894720;29;20253;-76
2022/10/06 04:19:42;;;;;;;12.40;2.38;;;;;;;11.02;100.00;102153.72;4894718;29;20036;-76
2022/10/06 04:22:11;;;;;;;7.95;2.17;;;;;;;11.02;100.00;102168.66;4892976;29;20074;-75
2022/10/06 04:24:40;;;;;;;7.80;1.70;;;;;;;10.99;100.00;102169.47;4897548;29;20043;-75
2022/10/06 04:27:28;;;;;;;11.23;2.03;;;;;;;10.95;100.00;102170.28;4845550;29;20318;-75
2022/10/06 04:30:06;;;;;;;14.15;2.50;;;;;;;10.90;100.00;102170.16;4885601;29;20264;-75
2022/10/06 04:32:35;;;;;;;12.68;2.10;;;;;;;10.88;100.00;102177.13;4907737;29;20051;-75
2022/10/06 04:35:04;;;;;;;12.85;2.00;;;;;;;10.84;100.00;102177.94;4877355;29;20039;-76
2022/10/06 04:37:32;;;;;;;9.30;2.30;;;;;;;10.83;100.00;102194.63;4887810;29;20039;-75
2022/10/06 04:40:01;;;;;;;13.32;2.28;;;;;;;10.83;100.00;102198.97;4894904;29;20040;-76
2022/10/06 04:42:32;;;;;;;6.63;2.22;;;;;;;10.81;100.00;102193.69;4886209;29;20040;-76
2022/10/06 04:45:06;;;;;;;12.20;2.45;;;;;;;10.79;100.00;102192.75;4886530;29;20447;-77
2022/10/06 04:47:36;;;;;;;15.50;1.92;;;;;;;10.77;100.00;102205.00;4906743;29;20038;-74
2022/10/06 04:50:05;;;;;;;9.55;2.22;;;;;;;10.76;100.00;102216.41;4901121;29;20262;-77
2022/10/06 04:52:33;;;;;;;7.35;2.00;;;;;;;10.75;100.00;102214.63;4896876;29;20055;-77
2022/10/06 04:55:03;;;;;;;13.82;2.50;;;;;;;10.73;100.00;102217.22;4887049;29;20420;-79
2022/10/06 04:57:31;;;;;;;13.77;1.92;;;;;;;10.73;100.00;102226.88;4895965;29;20036;-76
2022/10/06 05:02:47;;;;;;;8.00;2.50;;;;;;;10.66;100.00;102241.66;4890149;29;20063;-75
2022/10/06 05:05:16;;;;;;;11.25;2.17;;;;;;;10.64;100.00;102246.00;4869162;29;20167;-75
2022/10/06 05:07:45;;;;;;;10.07;2.80;;;;;;;10.60;100.00;102246.75;4881007;29;20040;-76
2022/10/06 05:10:14;;;;;;;11.70;2.42;;;;;;;10.57;100.00;102249.34;4882719;29;20047;-75
2022/10/06 05:12:43;;;;;;;11.00;3.13;;;;;;;10.52;100.00;102254.47;4887716;29;20174;-76
2022/10/06 05:15:11;;;;;;;9.88;2.40;;;;;;;10.50;100.00;102258.81;4884642;29;20054;-75
2022/10/06 05:17:40;;;;;;;15.85;2.65;;;;;;;10.48;100.00;102264.91;4871037;29;20027;-76
2022/10/06 05:20:09;;;;;;;11.07;2.70;;;;;;;10.47;100.00;102263.13;4910334;29;20055;-77
2022/10/06 05:22:38;;;;;;;9.68;2.55;;;;;;;10.45;100.00;102276.28;4894278;29;21745;-77
2022/10/06 05:25:07;;;;;;;14.85;1.90;;;;;;;10.43;100.00;102271.78;4899978;29;20397;-77
2022/10/06 05:27:35;;;;;;;9.98;2.15;;;;;;;10.41;100.00;102290.19;4893192;29;20611;-77
2022/10/06 05:30:04;;;;;;;11.48;2.00;;;;;;;10.38;100.00;102295.41;4862196;29;20039;-76
2022/10/06 05:32:33;;;;;;;11.85;1.90;;;;;;;10.36;100.00;102289.19;4902201;29;20063;-77
2022/10/06 05:35:04;;;;;;;5.53;1.95;;;;;;;10.33;100.00;102297.00;4872920;29;20397;-77
2022/10/06 05:37:33;;;;;;;11.18;2.63;;;;;;;10.31;100.00;102310.13;4904560;29;20036;-77
2022/10/06 05:40:02;;;;;;;20.33;2.28;;;;;;;10.30;100.00;102311.00;4889503;29;20044;-77
2022/10/06 05:42:30;;;;;;;8.82;1.75;;;;;;;10.27;100.00;102308.25;4905722;29;20708;-77
2022/10/06 05:45:00;;;;;;;12.20;2.13;;;;;;;10.27;100.00;102318.78;4870824;29;20047;-78
2022/10/06 05:47:29;;;;;;;12.00;2.33;;;;;;;10.25;100.00;102315.22;4903877;29;20512;-77
2022/10/06 05:49:57;;;;;;;7.28;1.80;;;;;;;10.25;100.00;102317.84;4899862;29;20056;-78
2022/10/06 05:52:26;;;;;;;15.55;2.45;;;;;;;10.23;100.00;102322.19;4894502;29;20417;-77
2022/10/06 05:54:54;;;;;;;10.55;1.70;;;;;;;10.23;100.00;102326.56;4917675;29;20043;-80
2022/10/06 05:57:23;;;;;;;6.57;1.90;;;;;;;10.24;100.00;102336.25;4875391;29;20051;-77
2022/10/06 05:59:51;;;;;;;6.78;1.65;;;;;;;10.25;100.00;102331.03;4901968;29;20059;-78
2022/10/06 06:02:19;;;;;;;5.72;1.70;;;;;;;10.24;100.00;102339.75;4867331;29;20260;-78
2022/10/06 06:04:48;;;;;;;11.00;2.00;;;;;;;10.26;100.00;102343.31;4912356;29;20055;-77
2022/10/06 06:07:17;;;;;;;8.57;1.80;;;;;;;10.27;100.00;102346.88;4900301;29;20066;-78
2022/10/06 06:09:46;;;;;;;10.23;2.77;;;;;;;10.27;100.00;102350.41;4900239;29;20047;-79
2022/10/06 06:12:15;;;;;;;7.55;1.42;;;;;;;10.30;100.00;102347.91;4884146;29;20384;-78
2022/10/06 06:17:43;;;;;;;9.60;2.25;;;;;;;10.35;100.00;102361.19;4886107;29;20047;-80
2022/10/06 06:20:13;;;;;;;8.45;1.77;;;;;;;10.39;100.00;102359.53;4903759;29;20177;-78
2022/10/06 06:22:41;;;;;;;11.48;1.80;;;;;;;10.43;100.00;102374.56;4906048;29;20397;-78
2022/10/06 06:25:11;;;;;;;14.63;2.38;;;;;;;10.44;100.00;102379.88;4898674;29;20054;-79
2022/10/06 06:27:43;;;;;;;13.73;1.98;;;;;;;10.47;100.00;102384.34;4916003;29;20040;-82
2022/10/06 06:30:12;;;;;;;6.43;2.15;;;;;;;10.48;100.00;102391.41;4867511;29;20059;-77
2022/10/06 06:32:41;;;;;;;12.32;2.83;;;;;;;10.51;100.00;102394.16;4852642;29;20043;-77
2022/10/06 06:35:10;;;;;;;11.07;1.95;;;;;;;10.53;100.00;102398.59;4888990;29;20078;-77
2022/10/06 06:37:38;;;;;;;14.27;2.20;;;;;;;10.57;100.00;102401.31;4882931;29;20051;-79
2022/10/06 06:40:07;;;;;;;9.80;2.08;;;;;;;10.60;100.00;102407.56;4910959;29;20039;-77
2022/10/06 06:42:38;;;;;;;11.25;2.33;;;;;;;10.64;100.00;102404.19;4912510;29;20036;-78
2022/10/06 06:45:33;;;;;;;7.88;1.80;;;;;;;10.68;100.00;102405.13;4883724;29;20052;-78
2022/10/06 06:48:15;;;;;;;7.95;1.65;;;;;;;10.73;100.00;102403.53;4855181;29;20047;-78
2022/10/06 06:50:54;;;;;;;11.73;2.20;;;;;;;10.77;100.00;102408.03;4895586;29;20050;-77
2022/10/06 06:53:23;;;;;;;14.02;2.15;;;;;;;10.82;100.00;102414.31;4905551;29;20052;-77
2022/10/06 06:55:55;;;;;;;9.15;2.10;;;;;;;10.87;100.00;102417.09;4881031;29;20059;-77
2022/10/06 06:58:24;;;;;;;11.75;2.10;;;;;;;10.93;100.00;102425.19;4882403;29;20301;-77
2022/10/06 07:00:52;;;;;;;8.20;2.13;;;;;;;10.98;100.00;102433.19;4899062;29;20048;-77
2022/10/06 07:03:21;;;;;;;7.95;1.95;;;;;;;11.02;100.00;102432.44;4883240;29;20054;-77
2022/10/06 07:06:12;;;;;;;8.82;2.25;;;;;;;11.09;100.00;102440.53;4886756;29;20128;-78
2022/10/06 07:08:45;;;;;;;;;;;;;;;11.16;100.00;102448.66;4891009;29;20046;-79
2022/10/06 07:11:19;;;;;;;11.77;2.17;;;;;;;11.20;100.00;102448.75;4906887;29;19923;-78
2022/10/06 07:13:57;;;;;;;14.80;2.45;;;;;;;11.28;100.00;102455.09;4926330;29;20036;-78
2022/10/06 07:25:06;;;;;;;9.30;2.25;;;;;;;11.64;100.00;102472.72;4919829;29;20044;-79
2022/10/06 07:27:42;;;;;;;11.57;2.58;;;;;;;11.79;100.00;102474.84;4893632;29;20047;-78
2022/10/06 07:30:20;;;;;;;7.80;2.20;;;;;;;11.97;100.00;102473.56;4899501;29;20316;-78
2022/10/06 07:32:54;;;;;;;10.13;2.42;;;;;;;12.22;100.00;102472.38;4907510;29;20060;-78
2022/10/06 07:35:25;;;;;;;10.45;2.80;;;;;;;12.56;100.00;102473.97;4876324;29;20043;-78
2022/10/06 07:37:53;;;;;;;11.73;2.08;;;;;;;12.95;100.00;102480.94;4891766;29;20040;-78
2022/10/06 07:40:24;;;;;;;12.82;2.92;;;;;;;13.35;100.00;102494.97;4904460;29;20058;-78
2022/10/06 07:42:52;;;;;;;10.43;2.00;;;;;;;13.74;100.00;102492.97;4914187;29;20500;-79
2022/10/06 07:45:40;;;;;;;10.80;2.15;;;;;;;14.02;100.00;102491.63;4886750;29;20039;-78
2022/10/06 07:48:18;;;;;;;7.68;2.10;;;;;;;14.27;100.00;102495.53;4912292;29;20430;-78
2022/10/06 07:50:52;;;;;;;9.00;2.17;;;;;;;14.52;100.00;102507.38;4871431;29;20042;-78
2022/10/06 07:53:26;;;;;;;10.60;1.98;;;;;;;14.75;100.00;102520.09;4888887;29;20047;-78
2022/10/06 07:56:09;;;;;;;9.15;1.90;;;;;;;14.94;100.00;102518.56;4903992;29;20067;-79
2022/10/06 07:58:43;;;;;;;8.75;1.95;;;;;;;15.12;100.00;102531.13;4895081;29;20048;-78
2022/10/06 08:01:14;;;;;;;12.97;2.23;;;;;;;15.29;100.00;102532.22;4881170;29;20571;-77
2022/10/06 08:03:47;;;;;;;9.30;1.98;;;;;;;15.48;100.00;102535.03;4893333;29;20044;-77
2022/10/06 08:06:17;;;;;;;11.68;2.58;;;;;;;15.58;100.00;102537.81;4885682;29;20047;-78
2022/10/06 08:08:47;;;;;;;7.35;1.80;;;;;;;15.72;100.00;102534.38;4913196;29;20406;-78
2022/10/06 08:11:21;;;;;;;15.23;2.40;;;;;;;15.79;100.00;102550.44;4887416;29;20413;-77
2022/10/06 08:13:50;;;;;;;11.88;2.10;;;;;;;15.83;100.00;102539.84;4886390;29;20075;-77
2022/10/06 08:16:22;;;;;;;12.98;2.20;;;;;;;15.83;100.00;102539.84;4887330;29;20040;-77
2022/10/06 08:18:53;;;;;;;9.65;1.90;;;;;;;15.81;100.00;102538.94;4900680;29;20051;-77
2022/10/06 08:21:27;;;;;;;11.48;2.30;;;;;;;15.84;100.00;102560.22;4876922;29;20050;-77
2022/10/06 08:23:57;;;;;;;7.82;1.92;;;;;;;15.92;100.00;102543.47;4904657;29;20406;-79
2022/10/06 08:26:27;;;;;;;12.40;2.42;;;;;;;15.97;100.00;102549.72;4912438;29;20056;-78
2022/10/06 08:29:01;;;;;;;10.25;2.03;;;;;;;16.05;100.00;102562.16;4918108;29;20404;-78
2022/10/06 08:31:32;;;;;;;11.80;2.17;;;;;;;16.09;100.00;102553.34;4868541;29;20184;-78
2022/10/06 08:34:01;;;;;;;10.55;3.08;;;;;;;16.11;100.00;102563.09;4900499;29;20052;-77
2022/10/06 08:36:29;;;;;;;10.13;1.88;;;;;;;16.09;100.00;102580.81;4863408;29;20052;-78
2022/10/06 08:39:00;;;;;;;10.45;1.98;;;;;;;16.04;100.00;102585.19;4910862;29;20068;-77
2022/10/06 08:41:43;;;;;;;11.10;2.45;;;;;;;16.06;100.00;102583.44;4882210;29;22883;-77
2022/10/06 08:44:16;;;;;;;15.25;2.80;;;;;;;16.09;100.00;102572.84;4915408;29;20038;-80
2022/10/06 08:47:03;;;;;;;7.05;1.95;;;;;;;16.16;100.00;102587.06;4902985;29;20039;-78
2022/10/06 08:49:39;;;;;;;10.75;2.42;;;;;;;16.05;100.00;102591.41;4913506;29;20052;-78
2022/10/06 08:52:34;;;;;;;9.93;2.60;;;;;;;15.93;100.00;102593.06;4891254;29;20063;-78
2022/10/06 08:55:17;;;;;;;9.75;2.20;;;;;;;15.82;100.00;102605.38;4897983;29;20073;-78
2022/10/06 08:58:04;;;;;;;13.80;2.40;;;;;;;15.80;100.00;102604.47;4908419;29;20425;-78
2022/10/06 09:00:32;;;;;;;8.23;1.85;;;;;;;15.75;100.00;102601.78;4911344;29;20295;-78
2022/10/06 09:03:02;;;;;;;11.90;2.22;;;;;;;15.67;100.00;102605.19;4902832;29;20044;-77
2022/10/06 09:05:33;;;;;;;12.32;2.25;;;;;;;15.58;100.00;102617.53;4893536;29;20052;-77
2022/10/06 09:08:11;;;;;;;9.68;2.05;;;;;;;15.52;100.00;102621.88;4860987;29;20040;-77
2022/10/06 09:11:01;;;;;;;12.57;2.00;;;;;;;15.43;100.00;102620.03;4919934;29;20353;-78
2022/10/06 09:13:37;;;;;;;10.07;2.10;;;;;;;15.29;99.89;102625.19;4918263;29;20055;-77
2022/10/06 09:16:09;;;;;;;12.35;3.03;;;;;;;15.26;100.00;102621.59;4932578;29;20168;-78
2022/10/06 09:18:43;;;;;;;10.52;2.38;;;;;;;15.24;100.00;102628.66;4911130;29;20066;-78
2022/10/06 09:21:46;;;;;;;8.55;1.80;;;;;;;15.16;100.00;102631.19;4900100;29;20039;-78
2022/10/06 09:24:19;;;;;;;7.43;1.80;;;;;;;15.16;100.00;102633.84;4884102;29;20048;-79
2022/10/06 09:26:50;;;;;;;11.32;2.10;;;;;;;15.18;100.00;102640.97;4907092;29;20059;-78
2022/10/06 09:29:19;;;;;;;6.78;1.77;;;;;;;15.17;100.00;102656.88;4926971;29;20047;-79
2022/10/06 09:31:49;;;;;;;11.13;1.92;;;;;;;15.20;100.00;102651.63;4914508;29;20063;-78
2022/10/06 09:34:18;;;;;;;;;;;;;;;15.29;100.00;102649.09;4882725;29;20528;-79
2022/10/06 09:36:59;;;;;;;11.15;2.13;;;;;;;15.35;100.00;102646.50;4931007;29;19923;-77
2022/10/06 09:39:37;;;;;;;6.97;1.60;;;;;;;15.35;100.00;102651.81;4904160;29;20265;-78
2022/10/06 09:42:24;;;;;;;8.50;2.03;;;;;;;15.35;99.73;102651.81;4892131;29;20501;-78
2022/10/06 09:45:02;;;;;;;5.85;1.80;;;;;;;15.38;100.00;102661.56;4906970;29;20051;-78
2022/10/06 09:47:35;;;;;;;9.20;2.10;;;;;;;15.43;100.00;102656.34;4916237;29;20262;-78
2022/10/06 09:50:24;;;;;;;12.60;1.67;;;;;;;15.45;99.27;102668.75;4908815;29;20039;-79
2022/10/06 09:52:59;;;;;;;8.57;2.17;;;;;;;15.46;99.30;102667.84;4872748;29;20063;-79
2022/10/06 09:55:37;;;;;;;8.80;1.65;;;;;;;15.55;100.00;102661.78;4906014;29;20047;-79
2022/10/06 09:58:31;;;;;;;11.40;2.05;;;;;;;15.59;98.65;102668.91;4905405;29;20397;-78
2022/10/06 10:01:03;;;;;;;12.70;2.03;;;;;;;15.56;99.27;102666.22;4880879;29;20036;-79
2022/10/06 10:03:45;;;;;;;12.68;2.88;;;;;;;15.53;97.60;102687.44;4897981;29;20070;-78
2022/10/06 10:06:34;;;;;;;8.90;1.60;;;;;;;15.53;98.36;102676.81;4891513;29;20269;-78
2022/10/06 10:09:21;;;;;;;8.43;1.88;;;;;;;15.63;96.49;102688.44;4858084;29;20070;-78
2022/10/06 10:12:23;;;;;;;10.95;2.08;;;;;;;15.71;98.22;102677.03;4910316;29;20048;-79
2022/10/06 10:14:56;;;;;;;13.45;2.20;;;;;;;15.83;98.96;102686.03;4904133;29;20044;-77
2022/10/06 10:17:36;;;;;;;8.90;2.05;;;;;;;15.83;94.79;102691.34;4888147;29;20332;-78
2022/10/06 10:20:18;;;;;;;;;;;;;;;15.82;91.38;102689.56;4876653;29;20046;-78
2022/10/06 10:22:47;;;;;;;7.05;1.80;;;;;;;15.88;96.86;102687.88;4928397;28;19923;-78
2022/10/06 10:25:34;;;;;;;4.25;1.42;;;;;;;15.92;96.85;102689.69;4852699;29;20074;-77
2022/10/06 10:28:26;;;;;;;8.63;2.15;;;;;;;16.00;97.05;102702.16;4907108;29;20043;-79
2022/10/06 10:31:10;;;;;;;9.18;1.80;;;;;;;16.05;95.27;102693.38;4896143;29;20039;-77
2022/10/06 10:33:57;;;;;;;8.40;1.90;;;;;;;16.10;94.82;102696.06;4907800;29;20036;-78
2022/10/06 10:36:55;;;;;;;8.20;2.33;;;;;;;16.12;93.52;102700.53;4915806;28;20039;-79
2022/10/06 10:39:32;;;;;;;7.18;1.70;;;;;;;16.11;93.48;102688.09;4913653;29;20051;-78
2022/10/06 10:42:08;;;;;;;10.23;2.65;;;;;;;16.11;92.41;102703.16;4894401;29;20066;-78
2022/10/06 10:44:46;;;;;;;4.50;1.83;;;;;;;16.13;91.91;102709.41;4917645;29;20397;-78
2022/10/06 10:47:30;;;;;;;7.47;1.77;;;;;;;16.12;90.58;102704.94;4910422;29;20035;-79
2022/10/06 10:50:16;;;;;;;6.60;1.83;;;;;;;16.15;91.03;102715.63;4898119;29;20102;-79
2022/10/06 10:52:47;;;;;;;4.55;1.23;;;;;;;16.20;90.90;102728.94;4895828;29;20051;-79
2022/10/06 10:55:16;;;;;;;10.00;1.98;;;;;;;16.20;90.85;102723.63;4899468;29;20095;-79
2022/10/06 10:57:46;;;;;;;5.25;1.50;;;;;;;16.21;91.61;102720.97;4909561;29;20043;-79
2022/10/06 11:00:19;;;;;;;6.45;1.60;;;;;;;16.23;89.31;102724.56;4927546;29;20047;-78
2022/10/06 11:02:53;;;;;;;8.88;1.60;;;;;;;16.25;89.98;102716.59;4925150;29;20070;-79
2022/10/06 11:05:43;;;;;;;6.13;1.30;;;;;;;16.27;88.74;102725.47;4920508;29;20047;-77
2022/10/06 11:08:23;;;;;;;8.18;1.60;;;;;;;16.33;88.98;102730.84;4911305;29;20517;-79
2022/10/06 11:11:01;;;;;;;6.00;1.60;;;;;;;16.34;85.68;102720.22;4897816;29;20417;-80
2022/10/06 11:13:53;;;;;;;6.57;1.52;;;;;;;16.26;81.91;102724.59;4912991;29;20055;-77
2022/10/06 11:16:50;;;;;;;6.82;1.52;;;;;;;16.16;85.19;102725.34;4910017;29;20040;-79
2022/10/06 11:19:45;;;;;;;4.88;1.35;;;;;;;16.04;87.52;102741.22;4908255;29;20528;-77
2022/10/06 11:22:25;;;;;;;8.02;1.70;;;;;;;15.96;88.17;102742.00;4908703;29;20611;-78
2022/10/06 11:25:18;;;;;;;4.93;1.40;;;;;;;16.05;89.16;102738.56;4929716;29;20043;-78
2022/10/06 11:28:05;;;;;;;5.38;1.63;;;;;;;16.21;86.73;102736.94;4898614;29;20310;-78
2022/10/06 11:30:51;;;;;;;10.98;1.55;;;;;;;16.33;88.48;102737.06;4899960;29;20532;-80
2022/10/06 11:33:33;;;;;;;5.75;1.67;;;;;;;16.46;86.72;102743.38;4910152;29;20052;-77
2022/10/06 11:36:02;;;;;;;4.38;1.40;;;;;;;16.54;87.50;102735.47;4920781;29;20040;-77
2022/10/06 11:38:46;;;;;;;5.65;1.50;;;;;;;16.62;87.44;102733.78;4915484;29;20062;-78
2022/10/06 11:41:17;;;;;;;6.20;2.00;;;;;;;16.71;87.00;102738.25;4910954;29;20524;-78
2022/10/06 11:43:52;;;;;;;10.65;1.70;;;;;;;16.75;84.81;102740.97;4901433;29;20258;-78
2022/10/06 11:46:30;;;;;;;3.72;1.40;;;;;;;16.73;82.30;102747.19;4909510;29;20047;-78
2022/10/06 11:49:29;;;;;;;4.53;1.67;;;;;;;16.66;76.91;102748.00;4927955;29;20055;-78
2022/10/06 11:52:10;;;;;;;8.25;1.77;;;;;;;16.59;78.09;102738.19;4888883;29;20055;-79
2022/10/06 11:54:38;;;;;;;8.35;1.58;;;;;;;16.47;81.05;102728.31;4881162;29;20044;-78
2022/10/06 11:57:31;;;;;;;4.45;1.30;;;;;;;16.45;78.18;102736.28;4892010;29;20043;-78